Time;durP1;ratioP1;P1;durP2;ratioP2;P2;SDS_P1;SDS_P2;PMS_P1;PMS_P2;Temp;Humidity;BMP_temperature;BMP_pressure;BME280_temperature;BME280_humidity;BME280_pressure;Samples;Min_cycle;Max_cycle;Signal;HPM_P1;HPM_P2
2023/03/25 00:00:58;;;;;;;7.40;4.13;;;;;;;7.98;100.00;162651.50;5070704;28;20082;-65
2023/03/25 00:03:30;;;;;;;9.18;4.55;;;;;;;7.89;100.00;162628.63;5072026;28;20028;-66
2023/03/25 00:05:56;;;;;;;8.32;3.33;;;;;;;7.86;100.00;162620.50;5070696;28;20487;-66
2023/03/25 00:08:25;;;;;;;6.15;4.00;;;;;;;7.91;100.00;162634.00;5072368;28;20021;-65
2023/03/25 00:10:55;;;;;;;5.78;3.17;;;;;;;7.92;100.00;162636.72;5069668;28;20051;-65
2023/03/25 00:13:22;;;;;;;6.05;2.75;;;;;;;8.00;100.00;162655.59;5072237;28;20028;-66
2023/03/25 00:15:48;;;;;;;6.95;3.05;;;;;;;8.07;100.00;162674.44;5070381;28;20468;-65
2023/03/25 00:18:17;;;;;;;10.13;4.35;;;;;;;8.10;100.00;162683.88;5071699;28;20079;-64
2023/03/25 00:20:44;;;;;;;10.27;3.30;;;;;;;8.14;100.00;162693.31;5070104;28;20190;-64
2023/03/25 00:23:11;;;;;;;9.93;4.13;;;;;;;8.15;100.00;162696.00;5072434;28;20020;-63
2023/03/25 00:25:37;;;;;;;12.80;4.00;;;;;;;8.14;100.00;162693.31;5070261;28;20411;-63
2023/03/25 00:28:02;;;;;;;2.95;2.25;;;;;;;8.15;100.00;162696.00;5070876;28;20039;-64
2023/03/25 00:30:28;;;;;;;6.50;2.72;;;;;;;8.12;100.00;162686.59;5070605;28;20045;-63
2023/03/25 00:32:53;;;;;;;5.93;2.70;;;;;;;8.10;100.00;162682.50;5071229;28;20031;-63
2023/03/25 00:35:19;;;;;;;5.10;2.70;;;;;;;8.08;100.00;162677.09;5070205;28;20044;-63
2023/03/25 00:37:46;;;;;;;7.25;3.30;;;;;;;8.05;100.00;162669.03;5071545;28;20407;-64
2023/03/25 00:40:12;;;;;;;5.00;3.00;;;;;;;8.02;100.00;162662.31;5069828;28;20056;-64
2023/03/25 00:42:48;;;;;;;6.85;3.50;;;;;;;8.04;100.00;162666.34;5071998;28;20024;-64
2023/03/25 00:45:14;;;;;;;6.85;4.43;;;;;;;8.04;100.00;162666.34;5070785;28;20047;-63
2023/03/25 00:47:40;;;;;;;5.55;2.90;;;;;;;8.03;100.00;162665.00;5071339;28;20028;-63
2023/03/25 00:50:06;;;;;;;6.22;3.03;;;;;;;8.04;100.00;162666.34;5070049;28;20549;-64
2023/03/25 00:52:31;;;;;;;8.95;3.85;;;;;;;8.04;100.00;162666.34;5071797;28;20082;-64
2023/03/25 00:54:56;;;;;;;11.25;4.30;;;;;;;8.00;100.00;162655.59;5069671;28;20518;-64
2023/03/25 00:57:22;;;;;;;6.93;2.53;;;;;;;8.00;100.00;162656.91;5071668;28;20074;-64
2023/03/25 00:59:47;;;;;;;8.35;3.20;;;;;;;8.01;100.00;162658.22;5070071;28;20033;-63
2023/03/25 01:02:15;;;;;;;7.18;3.92;;;;;;;8.02;100.00;162662.31;5071301;28;20024;-63
2023/03/25 01:04:40;;;;;;;19.75;4.03;;;;;;;8.01;100.00;162658.22;5070390;28;20059;-63
2023/03/25 01:07:06;;;;;;;7.97;5.60;;;;;;;7.98;100.00;162650.19;5071611;28;20020;-64
2023/03/25 01:09:32;;;;;;;14.00;4.65;;;;;;;8.02;100.00;162660.94;5070154;28;20025;-65
2023/03/25 01:11:58;;;;;;;12.98;3.75;;;;;;;8.01;100.00;162658.22;5070825;28;20029;-65
2023/03/25 01:14:26;;;;;;;7.40;3.92;;;;;;;7.97;100.00;162648.81;5070264;28;20051;-65
2023/03/25 01:16:51;;;;;;;6.13;3.50;;;;;;;8.01;100.00;162658.22;5071185;28;20111;-65
2023/03/25 01:19:17;;;;;;;7.53;4.28;;;;;;;8.02;100.00;162662.31;5069333;28;20052;-65
2023/03/25 01:21:44;;;;;;;7.63;3.53;;;;;;;8.04;100.00;162666.34;5071114;28;20373;-65
2023/03/25 01:24:11;;;;;;;13.52;4.43;;;;;;;8.04;100.00;162666.34;5071470;28;20048;-65
2023/03/25 01:26:37;;;;;;;8.48;3.55;;;;;;;8.02;100.00;162660.94;5069395;28;20036;-64
2023/03/25 01:29:02;;;;;;;7.22;4.80;;;;;;;8.02;100.00;162662.31;5071110;28;20035;-64
2023/03/25 01:31:32;;;;;;;5.80;3.22;;;;;;;7.98;100.00;162651.50;5069473;28;20045;-64
2023/03/25 01:33:58;;;;;;;6.55;3.40;;;;;;;8.03;100.00;162663.63;5070559;28;20059;-64
2023/03/25 01:36:28;;;;;;;7.07;4.10;;;;;;;8.06;100.00;162671.75;5069604;28;20068;-64
2023/03/25 01:38:54;;;;;;;9.63;4.18;;;;;;;8.09;100.00;162681.19;5070758;28;20028;-63
2023/03/25 01:41:20;;;;;;;9.07;3.15;;;;;;;8.10;100.00;162682.50;5069146;28;20121;-63
2023/03/25 01:44:04;;;;;;;9.18;3.13;;;;;;;8.08;100.00;162678.47;5070287;28;20107;-63
2023/03/25 01:46:29;;;;;;;3.40;2.33;;;;;;;8.14;100.00;162691.94;5069771;28;20033;-63
2023/03/25 01:48:56;;;;;;;6.60;3.13;;;;;;;8.13;100.00;162690.63;5070232;28;20035;-64
2023/03/25 01:51:25;;;;;;;9.90;4.13;;;;;;;8.08;100.00;162677.09;5069394;28;20400;-63
2023/03/25 01:53:55;;;;;;;13.45;4.13;;;;;;;8.14;100.00;162693.31;5070544;28;20472;-63
2023/03/25 01:56:30;;;;;;;9.98;3.40;;;;;;;8.16;100.00;162698.66;5068988;28;20070;-63
2023/03/25 01:58:58;;;;;;;7.55;3.55;;;;;;;8.16;100.00;162698.66;5070657;28;20119;-64
2023/03/25 02:01:25;;;;;;;25.85;5.57;;;;;;;8.07;100.00;162674.44;5069179;28;20029;-64
2023/03/25 02:03:52;;;;;;;6.70;3.38;;;;;;;8.17;100.00;162701.38;5070218;28;20487;-63
2023/03/25 02:06:30;;;;;;;5.28;3.05;;;;;;;8.16;100.00;162697.34;5069312;28;20044;-63
2023/03/25 02:08:57;;;;;;;13.93;5.70;;;;;;;8.11;100.00;162685.19;5070431;28;20029;-64
2023/03/25 02:11:27;;;;;;;16.52;3.22;;;;;;;8.12;100.00;162687.91;5068844;28;20041;-64
2023/03/25 02:13:59;;;;;;;13.38;5.07;;;;;;;8.16;100.00;162698.66;5070226;28;20089;-64
2023/03/25 02:16:33;;;;;;;7.82;4.57;;;;;;;8.17;100.00;162701.38;5068924;28;20551;-63
2023/03/25 02:19:36;;;;;;;10.90;4.47;;;;;;;8.17;100.00;162701.38;5070104;28;20071;-64
2023/03/25 02:22:16;;;;;;;8.73;3.80;;;;;;;8.20;100.00;162709.47;5069030;28;20045;-64
2023/03/25 02:25:03;;;;;;;9.63;3.13;;;;;;;8.22;100.00;162714.88;5068690;28;20044;-66
2023/03/25 02:28:00;;;;;;;14.00;4.88;;;;;;;8.24;100.00;162720.25;5070283;28;20030;-63
2023/03/25 02:30:50;;;;;;;11.75;3.40;;;;;;;8.24;100.00;162718.91;5069122;28;20113;-64
2023/03/25 02:33:24;;;;;;;11.25;4.03;;;;;;;8.25;100.00;162722.94;5070213;28;20090;-64
2023/03/25 02:36:28;;;;;;;14.45;5.10;;;;;;;8.29;100.00;162731.03;5068843;28;20032;-64
2023/03/25 02:39:01;;;;;;;13.13;3.88;;;;;;;8.21;100.00;162712.19;5069689;28;20471;-65
2023/03/25 02:41:35;;;;;;;7.28;3.33;;;;;;;8.22;100.00;162713.50;5067429;28;20420;-66
2023/03/25 02:44:14;;;;;;;9.38;4.25;;;;;;;8.25;100.00;162722.94;5070186;28;20031;-66
2023/03/25 02:46:49;;;;;;;15.27;3.65;;;;;;;8.25;100.00;162722.94;5068894;28;20074;-66
2023/03/25 02:49:40;;;;;;;10.45;4.10;;;;;;;8.31;100.00;162736.41;5068829;28;20069;-67
2023/03/25 02:52:12;;;;;;;7.30;3.22;;;;;;;8.22;100.00;162714.88;5071135;28;20455;-67
2023/03/25 02:54:40;;;;;;;12.00;4.38;;;;;;;8.12;100.00;162687.91;5072474;28;20043;-65
2023/03/25 02:57:07;;;;;;;10.82;3.65;;;;;;;8.04;100.00;162666.34;5074130;28;20077;-64
2023/03/25 02:59:37;;;;;;;12.18;3.70;;;;;;;7.89;100.00;162628.63;5072670;28;20177;-65
2023/03/25 03:02:06;;;;;;;12.70;6.28;;;;;;;7.91;100.00;162634.00;5073325;28;20062;-65
2023/03/25 03:04:32;;;;;;;20.05;5.95;;;;;;;7.96;100.00;162644.78;5072582;28;20064;-64
2023/03/25 03:06:58;;;;;;;13.88;3.50;;;;;;;7.98;100.00;162650.19;5073585;28;20020;-64
2023/03/25 03:09:30;;;;;;;12.55;5.15;;;;;;;8.00;100.00;162656.91;5071941;28;20044;-63
2023/03/25 03:12:14;;;;;;;12.68;4.38;;;;;;;7.98;100.00;162650.19;5073770;28;20028;-64
2023/03/25 03:15:22;;;;;;;9.45;3.90;;;;;;;7.99;100.00;162652.88;5072304;28;20032;-64
2023/03/25 03:18:19;;;;;;;8.55;3.00;;;;;;;7.96;100.00;162646.16;5072984;28;20035;-64
2023/03/25 03:21:05;;;;;;;11.10;3.60;;;;;;;7.94;100.00;162642.06;5071650;28;20143;-65
2023/03/25 03:23:35;;;;;;;7.47;3.33;;;;;;;7.96;100.00;162644.78;5073560;28;20028;-64
2023/03/25 03:26:26;;;;;;;7.75;4.45;;;;;;;7.91;100.00;162634.00;5072022;28;20044;-64
2023/03/25 03:29:00;;;;;;;8.43;3.40;;;;;;;7.89;100.00;162627.28;5073558;28;20047;-64
2023/03/25 03:31:38;;;;;;;6.68;4.00;;;;;;;7.84;100.00;162615.16;5071385;28;20105;-64
2023/03/25 03:34:13;;;;;;;8.88;2.67;;;;;;;7.84;100.00;162615.16;5073602;28;20032;-65
2023/03/25 03:36:44;;;;;;;7.07;4.82;;;;;;;7.80;100.00;162604.34;5072171;28;20046;-63
2023/03/25 03:39:19;;;;;;;5.90;3.33;;;;;;;7.80;100.00;162604.34;5073095;28;20025;-64
2023/03/25 03:41:50;;;;;;;6.28;3.50;;;;;;;7.80;100.00;162604.34;5051804;28;20041;-64
2023/03/25 03:44:20;;;;;;;8.98;4.38;;;;;;;7.82;100.00;162608.44;5052784;28;20058;-64
2023/03/25 03:46:49;;;;;;;10.02;3.42;;;;;;;7.85;100.00;162616.47;5072491;28;20424;-63
2023/03/25 03:49:20;;;;;;;7.30;4.32;;;;;;;7.89;100.00;162628.63;5072066;28;20033;-63
2023/03/25 03:52:02;;;;;;;9.88;4.53;;;;;;;7.90;100.00;162629.94;5073029;28;20048;-63
2023/03/25 03:54:33;;;;;;;8.18;4.18;;;;;;;7.92;100.00;162635.34;5071196;28;20024;-63
2023/03/25 03:57:04;;;;;;;10.18;3.58;;;;;;;7.90;100.00;162631.31;5072722;28;20103;-65
2023/03/25 03:59:36;;;;;;;8.23;3.08;;;;;;;7.94;100.00;162642.06;5071443;28;20031;-65
2023/03/25 04:02:07;;;;;;;7.35;4.45;;;;;;;7.91;100.00;162634.00;5072225;28;20032;-64
2023/03/25 04:04:33;;;;;;;6.55;3.40;;;;;;;7.92;100.00;162636.72;5071672;28;20123;-64
2023/03/25 04:07:14;;;;;;;8.48;3.55;;;;;;;7.86;100.00;162620.50;5072671;28;20032;-64
2023/03/25 04:09:42;;;;;;;7.18;3.60;;;;;;;7.59;100.00;162550.47;5071080;28;20036;-64
2023/03/25 04:12:21;;;;;;;4.43;4.00;;;;;;;7.46;100.00;162515.44;5072828;28;20025;-64
2023/03/25 04:14:46;;;;;;;;;;;;;;;7.42;100.00;162504.66;5071183;28;20499;-64
2023/03/25 04:17:12;;;;;;;7.72;3.33;;;;;;;7.37;100.00;162491.19;5072430;28;19909;-64
2023/03/25 04:19:37;;;;;;;6.53;4.03;;;;;;;7.33;100.00;162481.75;5071032;28;20067;-64
2023/03/25 04:22:04;;;;;;;6.82;3.35;;;;;;;7.33;100.00;162481.75;5071846;28;20025;-64
2023/03/25 04:24:30;;;;;;;7.68;3.88;;;;;;;7.32;100.00;162477.75;5070910;28;20021;-64
2023/03/25 04:27:02;;;;;;;21.00;6.60;;;;;;;7.29;100.00;162471.00;5072188;28;20103;-64
2023/03/25 04:29:28;;;;;;;10.48;7.15;;;;;;;7.34;100.00;162483.09;5070541;28;20137;-63
2023/03/25 04:31:55;;;;;;;16.60;4.55;;;;;;;7.36;100.00;162488.50;5071945;28;20383;-65
2023/03/25 04:34:21;;;;;;;19.23;6.35;;;;;;;7.34;100.00;162484.47;5071008;28;20020;-59
2023/03/25 04:36:48;;;;;;;15.13;4.35;;;;;;;7.30;100.00;162475.03;5071887;28;20490;-60
2023/03/25 04:39:16;;;;;;;7.82;3.38;;;;;;;7.34;100.00;162483.09;5070484;28;20487;-60
2023/03/25 04:41:42;;;;;;;7.68;3.65;;;;;;;7.32;100.00;162477.75;5072122;28;20071;-60
2023/03/25 04:44:08;;;;;;;9.55;3.33;;;;;;;7.31;100.00;162476.38;5072035;28;20387;-62
2023/03/25 04:46:35;;;;;;;10.15;4.05;;;;;;;7.34;100.00;162483.09;5070145;28;20040;-61
2023/03/25 04:49:04;;;;;;;6.75;3.78;;;;;;;7.36;100.00;162488.50;5071889;28;20024;-61
2023/03/25 04:51:31;;;;;;;8.32;4.78;;;;;;;7.35;100.00;162485.78;5070205;28;20491;-62
2023/03/25 04:53:57;;;;;;;12.13;6.05;;;;;;;7.40;100.00;162499.28;5071235;28;20482;-61
2023/03/25 04:56:22;;;;;;;11.13;4.82;;;;;;;7.40;100.00;162499.28;5070173;28;20044;-62
2023/03/25 04:58:48;;;;;;;17.48;6.88;;;;;;;7.44;100.00;162510.06;5071633;28;20020;-61
2023/03/25 05:01:23;;;;;;;14.65;4.47;;;;;;;7.46;100.00;162515.44;5069536;28;20473;-62
2023/03/25 05:03:49;;;;;;;10.13;4.47;;;;;;;7.47;100.00;162519.47;5071613;28;20039;-62
2023/03/25 05:06:16;;;;;;;9.93;5.13;;;;;;;7.50;100.00;162526.19;5070032;28;20040;-61
2023/03/25 05:08:41;;;;;;;11.07;4.57;;;;;;;7.54;100.00;162535.63;5071329;28;20020;-61
2023/03/25 05:11:07;;;;;;;8.15;4.30;;;;;;;7.55;100.00;162539.72;5069545;28;20450;-62
2023/03/25 05:13:32;;;;;;;6.97;3.53;;;;;;;7.56;100.00;162541.03;5070558;28;20028;-62
2023/03/25 05:15:57;;;;;;;7.97;3.97;;;;;;;7.58;100.00;162547.75;5068953;28;20047;-62
2023/03/25 05:18:23;;;;;;;8.90;3.55;;;;;;;7.59;100.00;162550.47;5071118;28;20117;-62
2023/03/25 05:20:49;;;;;;;8.52;4.57;;;;;;;7.63;100.00;162561.22;5069500;28;20412;-62
2023/03/25 05:23:16;;;;;;;10.88;3.80;;;;;;;7.60;100.00;162553.16;5070262;28;20025;-62
2023/03/25 05:25:46;;;;;;;6.95;3.58;;;;;;;7.64;100.00;162562.59;5049796;28;20451;-62
2023/03/25 05:28:15;;;;;;;9.27;4.20;;;;;;;7.62;100.00;162557.19;5051582;28;20399;-61
2023/03/25 05:30:44;;;;;;;19.70;5.85;;;;;;;7.56;100.00;162542.38;5049377;28;20381;-61
2023/03/25 05:33:10;;;;;;;;;;;;;;;7.53;100.00;162532.94;5051761;28;20025;-62
2023/03/25 05:35:36;;;;;;;11.60;3.80;;;;;;;7.40;100.00;162500.63;5049766;28;19935;-62
2023/03/25 05:38:03;;;;;;;8.77;3.75;;;;;;;7.36;100.00;162488.50;5067859;28;20033;-62
2023/03/25 05:40:29;;;;;;;11.40;3.85;;;;;;;7.32;100.00;162477.75;5069243;28;20048;-62
2023/03/25 05:42:54;;;;;;;13.88;4.30;;;;;;;7.33;100.00;162481.75;5069257;28;20032;-62
2023/03/25 05:45:20;;;;;;;11.98;4.80;;;;;;;7.28;100.00;162468.31;5067726;28;20041;-61
2023/03/25 05:47:46;;;;;;;12.40;4.57;;;;;;;7.24;100.00;162458.88;5068148;28;20067;-61
2023/03/25 05:50:13;;;;;;;8.52;4.55;;;;;;;7.19;100.00;162445.38;5064202;28;20049;-61
2023/03/25 05:52:40;;;;;;;15.13;4.25;;;;;;;7.21;100.00;162449.47;5069072;28;20107;-60
2023/03/25 05:55:09;;;;;;;15.40;4.40;;;;;;;7.22;100.00;162453.47;5069010;28;20045;-60
2023/03/25 05:57:35;;;;;;;;;;;;;;;7.23;100.00;162454.81;5070925;28;20119;-60
2023/03/25 06:00:03;;;;;;;15.43;5.65;;;;;;;7.21;100.00;162450.78;5067204;28;20459;-59
2023/03/25 06:02:29;;;;;;;11.00;4.20;;;;;;;7.20;100.00;162448.06;5070602;28;20024;-60
2023/03/25 06:04:54;;;;;;;8.50;3.28;;;;;;;7.26;100.00;162464.22;5050321;28;20085;-60
2023/03/25 06:07:21;;;;;;;8.80;4.72;;;;;;;7.29;100.00;162472.34;5052259;28;20020;-59
2023/03/25 06:09:47;;;;;;;5.43;3.72;;;;;;;7.32;100.00;162477.75;5068444;28;20044;-60
2023/03/25 06:12:18;;;;;;;4.97;3.60;;;;;;;7.40;100.00;162499.28;5070392;28;20025;-60
2023/03/25 06:14:44;;;;;;;10.40;3.95;;;;;;;7.46;100.00;162516.78;5067113;28;20047;-61
2023/03/25 06:17:14;;;;;;;11.60;3.75;;;;;;;7.43;100.00;162507.34;5070177;28;20024;-59
2023/03/25 06:19:40;;;;;;;11.60;4.13;;;;;;;7.47;100.00;162519.47;5068490;28;20071;-61
2023/03/25 06:22:08;;;;;;;9.20;4.93;;;;;;;7.51;100.00;162528.91;5068440;28;20071;-60
2023/03/25 06:24:37;;;;;;;8.80;4.68;;;;;;;7.55;100.00;162538.34;5068592;28;20110;-61
2023/03/25 06:27:13;;;;;;;7.05;4.40;;;;;;;7.55;100.00;162539.72;5071106;28;20572;-61
2023/03/25 06:29:41;;;;;;;9.15;5.47;;;;;;;7.56;100.00;162541.03;5070749;28;20044;-60
2023/03/25 06:32:08;;;;;;;5.85;3.88;;;;;;;7.58;100.00;162546.44;5073174;28;20047;-61
2023/03/25 06:34:34;;;;;;;6.03;3.40;;;;;;;7.63;100.00;162561.22;5072272;28;20418;-60
2023/03/25 06:37:00;;;;;;;7.53;4.93;;;;;;;7.62;100.00;162557.19;5066523;28;20029;-59
2023/03/25 06:39:30;;;;;;;10.93;4.82;;;;;;;7.62;100.00;162558.56;5072228;28;20032;-62
2023/03/25 06:41:56;;;;;;;7.72;3.95;;;;;;;7.64;100.00;162562.59;5072696;28;20056;-61
2023/03/25 06:44:21;;;;;;;6.82;3.10;;;;;;;7.64;100.00;162562.59;5066062;28;20086;-61
2023/03/25 06:46:46;;;;;;;4.50;2.78;;;;;;;7.78;100.00;162599.00;5072938;28;20012;-61
2023/03/25 06:49:12;;;;;;;13.95;4.93;;;;;;;7.82;100.00;162608.44;5071802;28;20499;-56
2023/03/25 06:51:37;;;;;;;8.68;4.07;;;;;;;7.83;100.00;162611.06;5072076;28;20434;-61
2023/03/25 06:54:02;;;;;;;10.00;2.72;;;;;;;7.88;100.00;162624.59;5072953;28;20029;-62
2023/03/25 06:56:28;;;;;;;8.23;3.70;;;;;;;7.97;100.00;162648.81;5056036;28;20064;-61
2023/03/25 06:58:53;;;;;;;8.88;2.85;;;;;;;7.96;100.00;162644.78;5054553;28;20029;-61
2023/03/25 07:01:18;;;;;;;9.88;4.05;;;;;;;7.92;100.00;162635.34;5071912;28;20040;-61
2023/03/25 07:03:44;;;;;;;9.52;4.20;;;;;;;7.93;100.00;162639.38;5073318;28;20020;-61
2023/03/25 07:06:15;;;;;;;11.43;4.38;;;;;;;7.97;100.00;162647.47;5069867;28;20081;-61
2023/03/25 07:08:41;;;;;;;15.05;6.32;;;;;;;7.92;100.00;162636.72;5072557;28;20029;-61
2023/03/25 07:11:06;;;;;;;12.23;5.97;;;;;;;7.91;100.00;162634.00;5071367;28;20047;-61
2023/03/25 07:13:32;;;;;;;14.35;3.70;;;;;;;7.93;100.00;162638.03;5073016;28;20024;-62
2023/03/25 07:15:59;;;;;;;16.33;5.97;;;;;;;7.91;100.00;162634.00;5071544;28;20495;-61
2023/03/25 07:18:24;;;;;;;17.30;6.55;;;;;;;7.92;100.00;162636.72;5072828;28;20053;-61
2023/03/25 07:20:50;;;;;;;11.85;5.55;;;;;;;7.94;100.00;162642.06;5069716;28;20051;-61
2023/03/25 07:23:15;;;;;;;12.88;4.72;;;;;;;8.08;100.00;162677.09;5072259;28;20402;-61
2023/03/25 07:25:40;;;;;;;8.30;5.50;;;;;;;8.16;100.00;162698.66;5070449;28;20059;-61
2023/03/25 07:28:06;;;;;;;11.02;5.32;;;;;;;8.32;100.00;162739.09;5071568;28;20429;-61
2023/03/25 07:30:31;;;;;;;16.80;5.13;;;;;;;8.38;100.00;162755.25;5068879;28;20041;-61
2023/03/25 07:32:57;;;;;;;16.40;6.47;;;;;;;8.46;100.00;162776.84;5051180;28;20036;-61
2023/03/25 07:35:23;;;;;;;11.25;5.47;;;;;;;8.44;100.00;162771.50;5049129;28;20041;-61
2023/03/25 07:37:48;;;;;;;7.10;4.20;;;;;;;8.37;100.00;162752.63;5050255;28;20028;-62
2023/03/25 07:40:13;;;;;;;10.35;3.90;;;;;;;8.41;100.00;162764.69;5049544;28;20044;-61
2023/03/25 07:42:39;;;;;;;18.13;6.07;;;;;;;8.31;100.00;162736.41;5046508;28;20143;-61
2023/03/25 07:45:05;;;;;;;14.88;5.07;;;;;;;8.32;100.00;162740.47;5049747;28;20403;-61
2023/03/25 07:47:30;;;;;;;11.70;5.63;;;;;;;8.40;100.00;162760.69;5051251;28;20525;-61
2023/03/25 07:49:56;;;;;;;13.73;5.03;;;;;;;8.76;100.00;162855.09;5055166;28;20041;-61
2023/03/25 07:52:21;;;;;;;9.90;4.00;;;;;;;9.48;100.00;163043.91;5053240;28;20035;-61
2023/03/25 07:54:47;;;;;;;22.17;6.97;;;;;;;9.83;100.00;163135.63;5049559;28;20041;-61
2023/03/25 07:57:12;;;;;;;11.13;5.18;;;;;;;9.82;100.00;163132.94;5051040;28;20078;-61
2023/03/25 07:59:38;;;;;;;9.38;4.47;;;;;;;9.52;100.00;163054.69;5049973;28;20087;-61
2023/03/25 08:02:03;;;;;;;8.43;4.82;;;;;;;9.38;100.00;163016.91;5050999;28;20025;-61
2023/03/25 08:04:29;;;;;;;12.95;4.60;;;;;;;9.26;100.00;162984.56;5049500;28;20032;-61
2023/03/25 08:06:54;;;;;;;6.53;3.75;;;;;;;9.12;100.00;162949.47;5051423;28;20380;-61
2023/03/25 08:09:20;;;;;;;7.82;5.32;;;;;;;8.85;100.00;162879.38;5050092;28;20096;-61
2023/03/25 08:11:47;;;;;;;16.70;7.32;;;;;;;8.65;100.00;162826.78;5067040;28;20032;-61
2023/03/25 08:14:12;;;;;;;14.55;5.22;;;;;;;8.48;100.00;162782.28;5069529;28;20024;-59
2023/03/25 08:16:38;;;;;;;16.83;5.25;;;;;;;8.47;100.00;162779.59;5070945;28;20025;-61
2023/03/25 08:19:03;;;;;;;14.65;5.07;;;;;;;8.46;100.00;162775.50;5033997;28;1034966;-61
2023/03/25 08:21:28;;;;;;;10.85;5.97;;;;;;;8.23;100.00;162717.53;5070103;28;20032;-61
2023/03/25 08:24:01;;;;;;;13.10;5.63;;;;;;;8.18;100.00;162704.06;5071497;28;20507;-61
2023/03/25 08:26:27;;;;;;;25.70;6.90;;;;;;;8.14;100.00;162693.31;5069159;28;20467;-61
2023/03/25 08:28:56;;;;;;;15.73;6.13;;;;;;;8.07;100.00;162675.78;5068868;28;20383;-61
2023/03/25 08:31:29;;;;;;;14.25;7.00;;;;;;;8.08;100.00;162677.09;5069524;28;20079;-61
2023/03/25 08:33:58;;;;;;;16.95;5.97;;;;;;;8.10;100.00;162682.50;5070645;28;20483;-61
2023/03/25 08:36:23;;;;;;;10.70;4.72;;;;;;;8.05;100.00;162669.03;5069644;28;20048;-61
2023/03/25 08:38:49;;;;;;;11.75;6.43;;;;;;;7.98;100.00;162650.19;5071267;28;20024;-62
2023/03/25 08:41:15;;;;;;;17.63;6.47;;;;;;;7.92;100.00;162636.72;5069527;28;20483;-61
2023/03/25 08:43:40;;;;;;;16.52;5.38;;;;;;;7.84;100.00;162615.16;5071706;28;20021;-62
2023/03/25 08:46:06;;;;;;;12.15;6.75;;;;;;;7.76;100.00;162594.91;5069218;28;20482;-62
2023/03/25 08:48:32;;;;;;;16.27;6.35;;;;;;;7.76;100.00;162593.59;5070602;28;20024;-61
2023/03/25 08:50:57;;;;;;;18.58;6.68;;;;;;;7.81;100.00;162607.06;5067388;28;20090;-62
2023/03/25 08:53:23;;;;;;;8.23;4.57;;;;;;;7.87;100.00;162621.88;5069587;28;20027;-61
2023/03/25 08:55:51;;;;;;;15.43;6.05;;;;;;;7.97;100.00;162647.47;5069727;28;20047;-61
2023/03/25 08:58:17;;;;;;;8.90;5.38;;;;;;;8.10;100.00;162682.50;5070439;28;20440;-62
2023/03/25 09:00:43;;;;;;;10.68;5.32;;;;;;;8.35;100.00;162747.22;5068971;28;20040;-61
2023/03/25 09:03:08;;;;;;;8.40;4.57;;;;;;;8.66;100.00;162828.16;5071186;28;20031;-61
2023/03/25 09:05:36;;;;;;;9.23;4.85;;;;;;;8.78;100.00;162860.50;5068614;28;20598;-61
2023/03/25 09:08:02;;;;;;;10.07;5.30;;;;;;;8.91;100.00;162892.81;5070383;28;20024;-62
2023/03/25 09:10:28;;;;;;;10.20;4.55;;;;;;;9.10;100.00;162942.72;5069506;28;20070;-61
2023/03/25 09:12:53;;;;;;;10.77;4.90;;;;;;;9.24;100.00;162979.16;5069707;28;20020;-61
2023/03/25 09:15:19;;;;;;;13.90;6.07;;;;;;;9.03;100.00;162925.22;5065450;28;20044;-62
2023/03/25 09:17:45;;;;;;;8.55;5.50;;;;;;;9.00;100.00;162917.13;5069479;28;20539;-60
2023/03/25 09:20:11;;;;;;;16.27;4.18;;;;;;;8.88;100.00;162887.47;5068400;28;20048;-60
2023/03/25 09:22:37;;;;;;;14.73;5.20;;;;;;;9.02;100.00;162922.53;5070382;28;20078;-60
2023/03/25 09:25:05;;;;;;;9.68;5.57;;;;;;;9.04;100.00;162927.94;5068942;28;20054;-60
2023/03/25 09:27:30;;;;;;;15.55;5.28;;;;;;;9.12;100.00;162949.47;5070265;28;20020;-60
2023/03/25 09:29:56;;;;;;;16.63;6.70;;;;;;;9.13;100.00;162952.16;5066524;28;20101;-61
2023/03/25 09:32:21;;;;;;;19.83;5.55;;;;;;;9.11;100.00;162945.44;5070842;28;20028;-60
2023/03/25 09:34:47;;;;;;;18.02;5.85;;;;;;;9.17;100.00;162962.97;5068345;28;20036;-60
2023/03/25 09:37:12;;;;;;;15.07;5.07;;;;;;;9.15;100.00;162957.56;5070654;28;20020;-60
2023/03/25 09:39:37;;;;;;;16.08;5.43;;;;;;;9.15;100.00;162956.25;5068254;28;20040;-60
2023/03/25 09:42:21;;;;;;;11.80;5.32;;;;;;;9.31;100.00;162999.38;5069211;28;20158;-60
2023/03/25 09:45:05;;;;;;;18.75;6.07;;;;;;;9.38;100.00;163016.91;5067484;28;20669;-60
2023/03/25 09:47:32;;;;;;;15.77;6.68;;;;;;;9.58;100.00;163069.53;5057642;28;20032;-60
2023/03/25 09:50:01;;;;;;;14.10;4.35;;;;;;;9.51;100.00;163051.97;5068364;28;20136;-60
2023/03/25 09:52:32;;;;;;;14.48;6.13;;;;;;;9.54;100.00;163058.72;5069354;28;20494;-60
2023/03/25 09:55:01;;;;;;;13.35;6.47;;;;;;;9.53;100.00;163057.38;5065296;28;20040;-60
2023/03/25 09:57:30;;;;;;;11.35;4.40;;;;;;;9.56;100.00;163062.78;5070023;28;20024;-60
2023/03/25 09:59:57;;;;;;;5.35;3.38;;;;;;;9.44;100.00;163033.09;5068210;28;20488;-60
2023/03/25 10:02:40;;;;;;;8.18;4.55;;;;;;;9.46;100.00;163038.50;5069971;28;20051;-60
2023/03/25 10:05:30;;;;;;;9.75;5.03;;;;;;;9.48;100.00;163043.91;5068689;28;20097;-60
2023/03/25 10:08:19;;;;;;;13.93;5.88;;;;;;;9.18;100.00;162965.69;5069902;28;20025;-61
2023/03/25 10:10:50;;;;;;;17.08;6.03;;;;;;;8.81;100.00;162867.22;5067194;28;20076;-61
2023/03/25 10:13:33;;;;;;;21.25;6.07;;;;;;;8.27;100.00;162726.97;5070278;28;20024;-60
2023/03/25 10:16:23;;;;;;;12.35;5.65;;;;;;;8.17;100.00;162701.38;5068590;28;20047;-61
2023/03/25 10:19:00;;;;;;;13.52;6.10;;;;;;;8.06;100.00;162673.06;5069264;28;20053;-61
2023/03/25 10:21:40;;;;;;;20.92;6.45;;;;;;;7.99;100.00;162652.88;5062104;28;20033;-61
2023/03/25 10:24:26;;;;;;;32.17;7.50;;;;;;;7.82;100.00;162609.75;5069582;28;20077;-61
2023/03/25 10:27:05;;;;;;;18.67;7.45;;;;;;;7.75;100.00;162590.88;5068041;28;20037;-61
2023/03/25 10:29:43;;;;;;;21.70;6.63;;;;;;;7.67;100.00;162569.31;5068474;28;20025;-61
2023/03/25 10:32:36;;;;;;;22.67;6.60;;;;;;;7.77;100.00;162596.28;5069398;28;20509;-61
2023/03/25 10:35:06;;;;;;;15.60;4.68;;;;;;;7.78;100.00;162599.00;5068273;28;20578;-61
2023/03/25 10:37:34;;;;;;;12.20;4.95;;;;;;;7.84;100.00;162615.16;5069253;28;20020;-61
2023/03/25 10:40:13;;;;;;;13.82;6.97;;;;;;;7.86;100.00;162620.50;5067498;28;20056;-61
2023/03/25 10:42:46;;;;;;;12.60;6.53;;;;;;;7.88;100.00;162624.59;5069999;28;20021;-61
2023/03/25 10:45:14;;;;;;;19.73;6.70;;;;;;;7.76;100.00;162593.59;5068010;28;20044;-61
2023/03/25 10:47:43;;;;;;;9.25;3.53;;;;;;;7.59;100.00;162549.13;5069764;28;20025;-61
2023/03/25 10:50:15;;;;;;;7.72;3.90;;;;;;;7.54;100.00;162537.00;5068449;28;20037;-61
2023/03/25 10:52:41;;;;;;;11.18;3.95;;;;;;;7.48;100.00;162520.84;5069508;28;20162;-61
2023/03/25 10:55:21;;;;;;;12.73;4.88;;;;;;;7.47;100.00;162518.16;5068011;28;20040;-61
2023/03/25 10:57:48;;;;;;;15.55;7.53;;;;;;;7.45;100.00;162514.06;5069847;28;20119;-61
2023/03/25 11:00:16;;;;;;;21.50;7.13;;;;;;;7.38;100.00;162493.91;5067922;28;20041;-61
2023/03/25 11:02:42;;;;;;;7.85;4.05;;;;;;;7.12;100.00;162426.53;5069437;28;20056;-62
2023/03/25 11:05:08;;;;;;;7.88;3.53;;;;;;;7.02;100.00;162400.94;5067859;28;20446;-62
2023/03/25 11:07:35;;;;;;;13.48;3.60;;;;;;;6.87;100.00;162361.91;5069838;28;20035;-62
2023/03/25 11:10:12;;;;;;;8.07;3.95;;;;;;;6.83;100.00;162351.13;5067237;28;20033;-62
2023/03/25 11:12:42;;;;;;;6.80;3.78;;;;;;;6.80;100.00;162343.06;5071624;28;20440;-62
2023/03/25 11:15:13;;;;;;;11.05;4.35;;;;;;;6.78;100.00;162339.00;5071793;28;20041;-63
2023/03/25 11:17:39;;;;;;;14.18;5.30;;;;;;;6.79;100.00;162340.38;5073679;28;20063;-62
2023/03/25 11:20:15;;;;;;;15.23;5.35;;;;;;;6.81;100.00;162345.78;5070828;28;20080;-62
2023/03/25 11:22:45;;;;;;;10.43;4.90;;;;;;;6.88;100.00;162364.63;5070863;28;20077;-62
2023/03/25 11:25:23;;;;;;;17.30;6.18;;;;;;;6.95;100.00;162383.47;5071448;28;20036;-62
2023/03/25 11:27:57;;;;;;;18.40;7.20;;;;;;;7.02;100.00;162400.94;5072279;28;20037;-62
2023/03/25 11:30:24;;;;;;;27.48;8.23;;;;;;;7.05;100.00;162407.66;5052125;28;20071;-61
2023/03/25 11:33:04;;;;;;;21.52;6.07;;;;;;;7.11;100.00;162425.19;5066011;28;20082;-62